Time;durP1;ratioP1;P1;durP2;ratioP2;P2;SDS_P1;SDS_P2;PMS_P1;PMS_P2;Temp;Humidity;BMP_temperature;BMP_pressure;BME280_temperature;BME280_humidity;BME280_pressure;Samples;Min_cycle;Max_cycle;Signal;HPM_P1;HPM_P2
2022/03/02 00:02:14;;;;;;;0.00;0.00;;;;;;;9.28;80.49;101004.84;6214214;23;20016;-73
2022/03/02 00:04:39;;;;;;;0.00;0.00;;;;;;;9.30;80.07;101008.16;6213817;23;20319;-74
2022/03/02 00:07:05;;;;;;;0.00;0.00;;;;;;;9.33;79.88;100999.47;6215562;23;20012;-74
2022/03/02 00:09:31;;;;;;;0.00;0.00;;;;;;;9.35;80.06;101000.91;6213831;23;20067;-76
2022/03/02 00:11:57;;;;;;;0.00;0.00;;;;;;;9.37;80.17;100997.91;6214594;23;20009;-73
2022/03/02 00:14:26;;;;;;;0.00;0.00;;;;;;;9.39;79.92;100995.78;6213208;23;20035;-75
2022/03/02 00:16:51;;;;;;;0.00;0.00;;;;;;;9.45;79.88;100994.81;6214272;23;20000;-75
2022/03/02 00:19:17;;;;;;;0.00;0.00;;;;;;;9.45;79.51;101000.28;6213722;23;20011;-76
2022/03/02 00:21:43;;;;;;;0.00;0.00;;;;;;;9.45;79.71;100989.34;6211157;23;20009;-74
2022/03/02 00:24:08;;;;;;;0.00;0.00;;;;;;;9.52;79.82;100995.50;6215621;23;20000;-73
2022/03/02 00:26:34;;;;;;;0.00;0.00;;;;;;;9.56;79.69;100996.66;6214059;23;20016;-74
2022/03/02 00:29:01;;;;;;;0.00;0.00;;;;;;;9.60;79.62;100997.81;6215453;23;20000;-74
2022/03/02 00:31:27;;;;;;;0.00;0.00;;;;;;;9.63;79.75;100995.69;6213980;23;20063;-74
2022/03/02 00:34:08;;;;;;;0.00;0.00;;;;;;;9.55;79.26;100977.78;6213441;23;20653;-77
2022/03/02 00:36:36;;;;;;;0.00;0.00;;;;;;;9.61;78.83;100987.72;6216064;23;20372;-75
2022/03/02 00:39:03;;;;;;;0.00;0.00;;;;;;;9.56;78.65;100985.75;6213083;23;20015;-75
2022/03/02 00:41:28;;;;;;;0.00;0.00;;;;;;;9.57;78.76;100990.09;6217323;23;20009;-74
2022/03/02 00:43:54;;;;;;;0.00;0.00;;;;;;;9.58;78.97;100989.03;6209750;23;20020;-70
2022/03/02 00:46:20;;;;;;;0.00;0.00;;;;;;;9.58;79.21;100983.59;6212708;23;20079;-72
2022/03/02 00:48:46;;;;;;;0.00;0.00;;;;;;;9.61;78.66;100983.09;6209858;23;20712;-70
2022/03/02 00:51:12;;;;;;;0.00;0.00;;;;;;;9.65;79.09;100977.13;6186409;23;20070;-69
2022/03/02 00:53:37;;;;;;;0.00;0.00;;;;;;;9.62;78.97;100970.25;6213692;23;20075;-69
2022/03/02 00:56:26;;;;;;;0.00;0.00;;;;;;;9.55;78.91;100959.50;6211296;23;20062;-70
2022/03/02 00:58:52;;;;;;;0.00;0.00;;;;;;;9.57;78.81;100971.00;6212467;23;20008;-69
2022/03/02 01:01:18;;;;;;;0.00;0.00;;;;;;;9.54;79.03;100960.56;6207048;23;20095;-70
2022/03/02 01:03:43;;;;;;;0.00;0.00;;;;;;;9.56;79.00;100957.59;6212309;23;20046;-69
2022/03/02 01:06:10;;;;;;;0.00;0.00;;;;;;;9.57;78.60;100953.78;6209462;23;20005;-69
2022/03/02 01:08:35;;;;;;;0.00;0.00;;;;;;;9.57;78.95;100954.63;6213702;23;20100;-68
2022/03/02 01:11:02;;;;;;;0.00;0.00;;;;;;;9.58;78.53;100956.28;6212947;23;20036;-70
2022/03/02 01:13:28;;;;;;;0.00;0.00;;;;;;;9.57;78.85;100953.78;6213209;23;20004;-70
2022/03/02 01:15:53;;;;;;;0.00;0.00;;;;;;;9.55;78.40;100954.03;6214677;23;20079;-71
2022/03/02 01:18:19;;;;;;;0.00;0.00;;;;;;;9.56;79.24;100947.53;6214922;23;20009;-71
2022/03/02 01:20:45;;;;;;;0.00;0.00;;;;;;;9.54;78.50;100955.09;6211220;23;20020;-70
2022/03/02 01:23:10;;;;;;;0.00;0.00;;;;;;;9.57;78.49;100953.78;6211782;23;20443;-71
2022/03/02 01:25:36;;;;;;;0.00;0.00;;;;;;;9.56;78.04;100941.22;6212699;23;20462;-70
2022/03/02 01:28:02;;;;;;;0.00;0.00;;;;;;;9.54;78.63;100948.81;6212843;23;20008;-70
2022/03/02 01:30:29;;;;;;;0.00;0.00;;;;;;;9.53;78.51;100947.97;6213823;23;20012;-72
2022/03/02 01:32:54;;;;;;;0.00;0.00;;;;;;;9.52;78.77;100946.34;6215233;23;20024;-70
2022/03/02 01:35:20;;;;;;;0.00;0.00;;;;;;;9.51;78.84;100939.22;6210311;23;20472;-71
2022/03/02 01:37:45;;;;;;;0.00;0.00;;;;;;;9.51;78.53;100943.88;6212257;23;20008;-71
2022/03/02 01:40:11;;;;;;;0.00;0.00;;;;;;;9.50;78.50;100942.19;6205823;23;20012;-72
2022/03/02 01:42:39;;;;;;;0.00;0.00;;;;;;;9.48;78.19;100942.44;6207839;23;20016;-71
2022/03/02 01:45:06;;;;;;;0.00;0.00;;;;;;;9.47;78.73;100940.78;6182622;23;20027;-72
2022/03/02 01:47:31;;;;;;;0.00;0.00;;;;;;;9.50;78.88;100936.75;6209127;23;20008;-72
2022/03/02 01:53:23;;;;;;;0.00;0.00;;;;;;;9.44;78.59;100922.16;6196152;23;20032;-72
2022/03/02 01:55:49;;;;;;;0.00;0.00;;;;;;;9.47;78.38;100924.41;6209627;23;20023;-74
2022/03/02 01:58:14;;;;;;;0.00;0.00;;;;;;;9.51;78.42;100928.31;6210307;23;20016;-72
2022/03/02 02:00:40;;;;;;;0.00;0.00;;;;;;;9.54;78.34;100927.81;6207567;23;20088;-72
2022/03/02 02:03:06;;;;;;;0.00;0.00;;;;;;;9.53;78.51;100920.69;6211213;23;20020;-73
2022/03/02 02:05:31;;;;;;;0.00;0.00;;;;;;;9.55;78.29;100914.97;6208872;23;20004;-71
2022/03/02 02:07:57;;;;;;;0.00;0.00;;;;;;;9.56;78.81;100920.22;6209657;23;20012;-72
2022/03/02 02:10:25;;;;;;;0.00;0.00;;;;;;;9.54;78.46;100908.69;6211078;23;20014;-73
2022/03/02 02:12:51;;;;;;;0.00;0.00;;;;;;;9.55;78.74;100912.25;6206060;23;20036;-71
2022/03/02 02:15:16;;;;;;;0.00;0.00;;;;;;;9.53;78.42;100909.75;6211239;23;20000;-72
2022/03/02 02:17:42;;;;;;;0.00;0.00;;;;;;;9.53;78.78;100904.28;6216961;23;20032;-71
2022/03/02 02:20:09;;;;;;;0.00;0.00;;;;;;;9.52;78.33;100899.94;6211169;23;20004;-72
2022/03/02 02:22:44;;;;;;;0.00;0.00;;;;;;;9.52;78.58;100902.66;6207861;23;20335;-72
2022/03/02 02:25:10;;;;;;;0.00;0.00;;;;;;;9.54;78.60;100900.50;6213432;23;20004;-70
2022/03/02 02:27:38;;;;;;;0.00;0.00;;;;;;;9.57;78.65;100899.19;6208446;23;20008;-70
2022/03/02 02:30:05;;;;;;;0.00;0.00;;;;;;;9.54;78.79;100895.03;6207518;23;20004;-71
2022/03/02 02:32:30;;;;;;;0.00;0.00;;;;;;;9.54;78.71;100895.03;6211477;23;20005;-71
2022/03/02 02:34:59;;;;;;;0.00;0.00;;;;;;;9.54;78.31;100889.59;6206654;23;20019;-72
2022/03/02 02:37:28;;;;;;;0.00;0.00;;;;;;;9.54;78.47;100889.59;6210980;23;19997;-68
2022/03/02 02:39:55;;;;;;;0.00;0.00;;;;;;;9.55;78.35;100885.78;6207413;23;20008;-71
2022/03/02 02:42:21;;;;;;;0.00;0.00;;;;;;;9.58;78.66;100879.81;6208347;23;20008;-72
2022/03/02 02:44:48;;;;;;;0.00;0.00;;;;;;;9.60;78.23;100882.31;6210356;23;20086;-72
2022/03/02 02:47:14;;;;;;;0.00;0.00;;;;;;;9.61;78.65;100867.59;6211856;23;20007;-71
2022/03/02 02:49:39;;;;;;;0.00;0.00;;;;;;;9.61;78.57;100873.88;6210021;23;20000;-71
2022/03/02 02:52:05;;;;;;;0.00;0.00;;;;;;;9.63;78.38;100876.34;6207536;23;20032;-69
2022/03/02 02:54:31;;;;;;;0.00;0.00;;;;;;;9.65;78.10;100867.91;6211293;23;20335;-70
2022/03/02 02:56:56;;;;;;;0.00;0.00;;;;;;;9.64;78.57;100866.25;6211588;23;20005;-69
2022/03/02 02:59:22;;;;;;;0.00;0.00;;;;;;;9.64;78.55;100864.34;6211766;23;20679;-75
2022/03/02 03:01:47;;;;;;;0.00;0.00;;;;;;;9.65;78.65;100859.72;6213494;23;20005;-75
2022/03/02 03:04:13;;;;;;;0.00;0.00;;;;;;;9.66;78.52;100856.72;6212950;23;20480;-74
2022/03/02 03:06:42;;;;;;;0.00;0.00;;;;;;;9.69;78.80;100858.13;6211785;23;20436;-70
2022/03/02 03:09:08;;;;;;;0.00;0.00;;;;;;;9.69;78.43;100858.13;6210839;23;20005;-71
2022/03/02 03:11:39;;;;;;;0.00;0.00;;;;;;;9.66;78.05;100854.00;6211350;23;20023;-70
2022/03/02 03:14:13;;;;;;;0.00;0.00;;;;;;;9.67;78.38;100854.84;6210383;23;20013;-70
2022/03/02 03:16:39;;;;;;;0.00;0.00;;;;;;;9.65;78.66;100851.50;6209730;23;20065;-70
2022/03/02 03:19:05;;;;;;;0.00;0.00;;;;;;;9.63;78.57;100856.41;6211418;23;20008;-70
2022/03/02 03:21:32;;;;;;;0.00;0.00;;;;;;;9.65;78.90;100856.97;6210368;23;20012;-70
2022/03/02 03:23:58;;;;;;;0.00;0.00;;;;;;;9.64;78.71;100849.84;6210043;23;20008;-70
2022/03/02 03:26:23;;;;;;;0.00;0.00;;;;;;;9.64;78.86;100853.44;6208326;23;20416;-70
2022/03/02 03:28:49;;;;;;;0.00;0.00;;;;;;;9.65;78.68;100851.50;6211875;23;20008;-70
2022/03/02 03:31:14;;;;;;;0.00;0.00;;;;;;;9.66;78.69;100847.72;6213096;23;20001;-71
2022/03/02 03:33:40;;;;;;;0.00;0.00;;;;;;;9.65;78.89;100841.44;6213461;23;20009;-71
2022/03/02 03:36:05;;;;;;;0.00;0.00;;;;;;;9.66;78.91;100836.78;6211662;23;20088;-71
2022/03/02 03:38:31;;;;;;;0.00;0.00;;;;;;;9.68;78.81;100840.94;6209795;23;20008;-71
2022/03/02 03:40:57;;;;;;;0.00;0.00;;;;;;;9.68;78.63;100834.63;6206656;23;20012;-70
2022/03/02 03:43:22;;;;;;;0.00;0.00;;;;;;;9.72;78.79;100836.59;6212404;23;20009;-70
2022/03/02 03:45:49;;;;;;;0.00;0.00;;;;;;;9.71;78.88;100828.66;6185511;23;20091;-71
2022/03/02 03:48:15;;;;;;;0.00;0.00;;;;;;;9.72;78.86;100822.13;6211586;23;20009;-71
2022/03/02 03:50:41;;;;;;;0.00;0.00;;;;;;;9.71;78.67;100823.19;6212303;23;20001;-71
2022/03/02 03:53:08;;;;;;;0.00;0.00;;;;;;;9.69;78.93;100819.91;6210203;23;20005;-70
2022/03/02 03:55:34;;;;;;;0.00;0.00;;;;;;;9.71;78.87;100815.00;6205524;23;20493;-72
2022/03/02 03:57:59;;;;;;;0.00;0.00;;;;;;;9.71;79.02;100813.13;6214074;23;20017;-70
2022/03/02 04:00:25;;;;;;;0.00;0.00;;;;;;;9.69;79.37;100803.53;6209387;23;20016;-71
2022/03/02 04:02:50;;;;;;;0.00;0.00;;;;;;;9.73;78.99;100810.16;6214251;23;20008;-70
2022/03/02 04:05:17;;;;;;;0.00;0.00;;;;;;;9.73;79.09;100802.78;6214532;23;20012;-70
2022/03/02 04:07:44;;;;;;;0.00;0.00;;;;;;;9.74;78.87;100800.88;6185836;23;20017;-71
2022/03/02 04:10:10;;;;;;;0.00;0.00;;;;;;;9.74;78.97;100795.41;6212644;23;20051;-70
2022/03/02 04:12:36;;;;;;;0.00;0.00;;;;;;;9.75;79.44;100795.16;6208505;23;20016;-70
2022/03/02 04:15:03;;;;;;;0.00;0.00;;;;;;;9.76;78.68;100801.44;6213170;23;20129;-70
2022/03/02 04:17:29;;;;;;;0.00;0.00;;;;;;;9.74;79.03;100789.97;6211464;23;20036;-70
2022/03/02 04:19:56;;;;;;;0.00;0.00;;;;;;;9.74;79.57;100789.97;6208013;23;20016;-70
2022/03/02 04:22:22;;;;;;;0.00;0.00;;;;;;;9.76;79.31;100788.59;6209094;23;20075;-70
2022/03/02 04:24:47;;;;;;;0.00;0.00;;;;;;;9.78;79.70;100783.72;6210325;23;20008;-71
2022/03/02 04:27:13;;;;;;;0.00;0.00;;;;;;;9.78;79.17;100785.63;6215539;23;20039;-70
2022/03/02 04:29:39;;;;;;;0.00;0.00;;;;;;;9.78;79.38;100788.34;6214721;23;20301;-70
2022/03/02 04:32:05;;;;;;;0.00;0.00;;;;;;;9.73;79.79;100782.84;6212835;23;20054;-70
2022/03/02 04:34:31;;;;;;;3.53;3.33;;;;;;;9.77;79.62;100789.44;6215525;23;20004;-71
2022/03/02 04:36:56;;;;;;;0.00;0.00;;;;;;;9.75;79.72;100788.84;6211590;23;20070;-70
2022/03/02 04:39:27;;;;;;;0.00;0.00;;;;;;;9.71;79.32;100784.97;6211322;23;20009;-72
2022/03/02 04:41:55;;;;;;;0.00;0.00;;;;;;;9.69;79.61;100776.22;6212992;23;20075;-70
2022/03/02 04:44:21;;;;;;;0.00;0.00;;;;;;;9.73;79.52;100788.28;6211746;23;20004;-71
2022/03/02 04:46:50;;;;;;;0.00;0.00;;;;;;;9.74;79.60;100779.84;6213359;23;20015;-71
2022/03/02 04:49:18;;;;;;;0.00;0.00;;;;;;;9.70;79.90;100778.69;6213281;23;20008;-71
2022/03/02 04:51:46;;;;;;;0.00;0.00;;;;;;;9.72;79.80;100776.53;6213704;23;20079;-69
2022/03/02 04:55:05;;;;;;;0.00;0.00;;;;;;;9.72;79.72;100776.53;6212960;23;20149;-71
2022/03/02 04:56:58;;;;;;;;;;;;;;;9.74;79.74;100781.75;6216135;23;20371;-72
2022/03/02 04:59:23;;;;;;;;;;;;;;;9.73;80.01;100778.19;6215054;23;19908;-71
2022/03/02 05:01:49;;;;;;;0.00;0.00;;;;;;;9.71;79.72;100774.91;6186575;23;19916;-71
2022/03/02 05:04:14;;;;;;;0.00;0.00;;;;;;;9.72;79.62;100778.44;6208778;23;20011;-71
2022/03/02 05:06:40;;;;;;;0.00;0.00;;;;;;;9.70;80.06;100783.34;6207997;23;20415;-70
2022/03/02 05:09:05;;;;;;;0.00;0.00;;;;;;;9.70;79.86;100783.34;6186264;23;20076;-70
2022/03/02 05:11:30;;;;;;;0.00;0.00;;;;;;;9.70;80.25;100775.97;6206148;23;20016;-70
2022/03/02 05:13:56;;;;;;;0.00;0.00;;;;;;;9.70;79.64;100773.22;6208466;23;20012;-70
2022/03/02 05:16:22;;;;;;;0.00;0.00;;;;;;;9.67;80.40;100772.91;6213160;23;20008;-71
2022/03/02 05:18:48;;;;;;;0.00;0.00;;;;;;;9.68;80.29;100769.09;6208820;23;20009;-70
2022/03/02 05:21:15;;;;;;;0.00;0.00;;;;;;;9.68;80.29;100763.63;6210509;23;20084;-71
2022/03/02 05:23:40;;;;;;;0.00;0.00;;;;;;;9.70;80.17;100766.97;6209279;23;20011;-70
2022/03/02 05:26:06;;;;;;;0.00;0.00;;;;;;;9.69;80.34;100765.28;6212072;23;20008;-72
2022/03/02 05:28:41;;;;;;;0.00;0.00;;;;;;;9.69;80.40;100762.56;6205420;23;20004;-76
2022/03/02 05:31:06;;;;;;;0.00;0.00;;;;;;;9.66;80.59;100763.06;6186195;23;20401;-73
2022/03/02 05:33:32;;;;;;;0.00;0.00;;;;;;;9.66;80.36;100760.34;6223946;23;20004;-72
2022/03/02 05:35:57;;;;;;;0.00;0.00;;;;;;;9.64;80.45;100762.47;6192525;23;20165;-72
2022/03/02 05:38:23;;;;;;;0.00;0.00;;;;;;;9.61;80.16;100761.91;6213413;23;20004;-71
2022/03/02 05:40:48;;;;;;;0.00;0.00;;;;;;;9.60;80.67;100762.97;6211411;23;20335;-72
2022/03/02 05:43:14;;;;;;;0.00;0.00;;;;;;;9.60;80.76;100768.44;6211716;23;20008;-72
2022/03/02 05:45:40;;;;;;;0.00;0.00;;;;;;;9.59;80.47;100761.34;6212536;23;20607;-72
2022/03/02 05:48:06;;;;;;;0.00;0.00;;;;;;;9.56;80.92;100761.84;6214069;23;20092;-71
2022/03/02 05:50:32;;;;;;;0.00;0.00;;;;;;;9.54;80.77;100763.19;6209334;23;20092;-70
2022/03/02 05:52:58;;;;;;;0.00;0.00;;;;;;;9.56;81.14;100761.84;6213876;23;20012;-72
2022/03/02 05:55:23;;;;;;;0.00;0.00;;;;;;;9.58;81.23;100754.22;6210456;23;20012;-71
2022/03/02 05:57:48;;;;;;;0.32;0.08;;;;;;;9.60;81.10;100756.72;6163960;23;20009;-72
2022/03/02 06:00:14;;;;;;;0.00;0.00;;;;;;;9.59;80.74;100764.09;6188118;23;20427;-72
2022/03/02 06:02:40;;;;;;;0.00;0.00;;;;;;;9.58;80.78;100759.69;6213944;23;20483;-71
2022/03/02 06:05:09;;;;;;;0.00;0.00;;;;;;;9.55;80.87;100762.94;6212290;23;20017;-72
2022/03/02 06:07:35;;;;;;;0.00;0.00;;;;;;;9.53;81.47;100762.34;6213796;23;20008;-71
2022/03/02 06:10:01;;;;;;;0.00;0.00;;;;;;;9.52;81.40;100763.44;6186914;23;20309;-71
2022/03/02 06:12:26;;;;;;;0.00;0.00;;;;;;;9.50;81.29;100757.38;6212620;23;20016;-71
2022/03/02 06:14:52;;;;;;;0.00;0.00;;;;;;;9.48;81.58;100770.47;6160576;23;20023;-72
2022/03/02 06:17:19;;;;;;;0.00;0.00;;;;;;;9.42;81.04;100764.09;6215452;23;20323;-71
2022/03/02 06:19:44;;;;;;;0.00;0.00;;;;;;;9.38;81.37;100759.41;6214992;23;20091;-71
2022/03/02 06:22:10;;;;;;;0.00;0.00;;;;;;;9.37;82.01;100758.53;6214199;23;20083;-71
2022/03/02 06:24:36;;;;;;;0.00;0.00;;;;;;;9.36;81.65;100761.53;6210954;23;20363;-71
2022/03/02 06:27:02;;;;;;;0.00;0.00;;;;;;;9.36;82.03;100761.53;6235467;23;20008;-71
2022/03/02 06:29:27;;;;;;;0.00;0.00;;;;;;;9.35;81.75;100755.25;6231698;23;20008;-69
2022/03/02 06:31:53;;;;;;;0.00;0.00;;;;;;;9.34;81.79;100766.41;6235429;23;19996;-71
2022/03/02 06:34:18;;;;;;;0.00;0.00;;;;;;;9.30;81.97;100754.34;6217889;23;20100;-70
2022/03/02 06:36:49;;;;;;;0.00;0.00;;;;;;;9.29;82.07;100767.16;6207132;23;20066;-71
2022/03/02 06:39:16;;;;;;;0.00;0.00;;;;;;;9.26;81.76;100765.75;6215732;23;20004;-71
2022/03/02 06:42:11;;;;;;;;;;;;;;;;;;;;;
2022/03/02 06:45:06;;;;;;;0.00;0.00;;;;;;;9.23;82.54;100771.72;6214884;23;20075;-71
2022/03/02 06:47:51;;;;;;;0.00;0.00;;;;;;;9.18;82.17;100771.63;6178609;23;20366;-72
2022/03/02 06:50:23;;;;;;;0.00;0.00;;;;;;;9.14;82.63;100778.69;6204735;23;20005;-71
2022/03/02 06:52:53;;;;;;;0.00;0.00;;;;;;;9.05;82.49;100769.22;6210950;23;20028;-71
2022/03/02 06:55:18;;;;;;;0.00;0.00;;;;;;;9.05;82.76;100774.69;6212283;23;20008;-72
2022/03/02 06:57:56;;;;;;;0.00;0.00;;;;;;;9.02;82.53;100776.03;6212662;23;20304;-72
2022/03/02 07:00:47;;;;;;;0.00;0.00;;;;;;;9.01;83.21;100776.25;6211249;23;20009;-71
2022/03/02 07:03:18;;;;;;;0.00;0.00;;;;;;;9.05;83.43;100782.88;6211370;23;20008;-73
2022/03/02 07:05:46;;;;;;;0.00;0.00;;;;;;;9.01;82.67;100778.97;6213438;23;20035;-70
2022/03/02 07:08:12;;;;;;;0.00;0.00;;;;;;;9.02;82.61;100786.09;6215428;23;20012;-71
2022/03/02 07:10:37;;;;;;;0.00;0.00;;;;;;;9.01;83.28;100788.00;6217465;23;20438;-71
2022/03/02 07:13:06;;;;;;;0.90;0.90;;;;;;;9.03;83.06;100791.31;6186111;23;20087;-70
2022/03/02 07:15:32;;;;;;;0.00;0.00;;;;;;;9.02;82.89;100786.09;6214087;23;20079;-74
2022/03/02 07:18:08;;;;;;;0.00;0.00;;;;;;;9.02;82.98;100783.38;6214365;23;20019;-74
2022/03/02 07:20:39;;;;;;;0.00;0.00;;;;;;;9.05;82.69;100789.16;6214426;23;20004;-74
2022/03/02 07:23:15;;;;;;;0.00;0.00;;;;;;;9.06;82.95;100798.16;6214466;23;20008;-73
2022/03/02 07:25:44;;;;;;;;;;;;;;;9.11;82.96;100808.34;6219745;23;20086;-71
2022/03/02 07:28:12;;;;;;;0.00;0.00;;;;;;;9.11;82.82;100798.25;6217228;23;19939;-71
2022/03/02 07:30:39;;;;;;;0.00;0.00;;;;;;;9.04;82.84;100798.41;6215005;23;20011;-71
2022/03/02 07:33:13;;;;;;;0.00;0.00;;;;;;;9.00;82.43;100805.44;6213437;23;20009;-71
2022/03/02 07:35:39;;;;;;;0.00;0.00;;;;;;;8.94;83.06;100794.69;6211883;23;20384;-71
2022/03/02 07:38:06;;;;;;;0.00;0.00;;;;;;;9.00;83.09;100801.91;6214164;23;20031;-71
2022/03/02 07:40:33;;;;;;;0.00;0.00;;;;;;;8.99;83.04;100792.03;6212899;23;20058;-72
2022/03/02 07:43:01;;;;;;;0.00;0.00;;;;;;;8.99;83.22;100790.13;6213105;23;20005;-73
2022/03/02 07:45:27;;;;;;;0.00;0.00;;;;;;;9.02;83.36;100791.56;6212461;23;19996;-71
2022/03/02 07:47:52;;;;;;;0.00;0.00;;;;;;;9.05;83.31;100788.31;6211740;23;20030;-73
2022/03/02 07:50:18;;;;;;;0.00;0.00;;;;;;;9.06;83.29;100790.00;6187663;23;20035;-72
2022/03/02 07:53:00;;;;;;;0.00;0.00;;;;;;;9.05;83.56;100781.00;6212860;23;20378;-71
2022/03/02 07:55:30;;;;;;;0.10;0.10;;;;;;;9.05;83.62;100778.25;6213629;23;20039;-72
2022/03/02 07:57:55;;;;;;;0.00;0.00;;;;;;;9.06;83.27;100787.25;6214385;23;20009;-72
2022/03/02 08:00:28;;;;;;;0.00;0.00;;;;;;;9.05;83.62;100785.59;6215812;23;20450;-72
2022/03/02 08:02:57;;;;;;;0.00;0.00;;;;;;;9.14;83.40;100792.31;6214052;23;20011;-71
2022/03/02 08:05:26;;;;;;;0.00;0.00;;;;;;;9.17;83.42;100791.81;6213564;23;20060;-72
2022/03/02 08:07:51;;;;;;;0.00;0.00;;;;;;;9.17;83.29;100791.81;6211033;23;20011;-72
2022/03/02 08:10:20;;;;;;;0.00;0.00;;;;;;;9.20;83.26;100788.59;6187511;23;20005;-72
2022/03/02 08:12:46;;;;;;;0.00;0.00;;;;;;;9.25;83.03;100777.75;6211414;23;20005;-72
2022/03/02 08:15:12;;;;;;;0.00;0.00;;;;;;;9.31;82.68;100788.75;6214536;23;20084;-72
2022/03/02 08:17:38;;;;;;;0.00;0.00;;;;;;;9.29;83.09;100790.88;6212241;23;20032;-70
2022/03/02 08:20:05;;;;;;;0.00;0.00;;;;;;;9.26;82.64;100798.50;6214814;23;20047;-71
2022/03/02 08:22:31;;;;;;;0.08;0.08;;;;;;;9.20;82.91;100794.06;6211916;23;20430;-71
2022/03/02 08:25:12;;;;;;;0.00;0.00;;;;;;;9.17;82.82;100791.81;6213573;23;20008;-71
2022/03/02 08:27:39;;;;;;;0.00;0.00;;;;;;;9.15;82.84;100788.50;6208473;23;20159;-72
2022/03/02 08:30:06;;;;;;;0.00;0.00;;;;;;;9.15;82.96;100790.41;6214075;23;20428;-71
2022/03/02 08:32:37;;;;;;;0.00;0.00;;;;;;;9.10;82.98;100780.25;6210310;23;20398;-71
2022/03/02 08:35:04;;;;;;;0.00;0.00;;;;;;;9.07;83.15;100789.75;6210722;23;20008;-73
2022/03/02 08:37:30;;;;;;;0.00;0.00;;;;;;;9.03;83.30;100790.47;6213832;23;20016;-71
2022/03/02 08:39:56;;;;;;;0.00;0.00;;;;;;;8.96;83.17;100792.53;6206505;23;20013;-71
2022/03/02 08:43:07;;;;;;;;;;;;;;;;;;;;;
2022/03/02 08:45:42;;;;;;;0.00;0.00;;;;;;;8.91;83.55;100782.38;6211419;23;20378;-70
2022/03/02 08:48:54;;;;;;;0.63;0.63;;;;;;;8.86;83.42;100791.31;6210969;23;20008;-72
2022/03/02 08:51:28;;;;;;;0.38;0.38;;;;;;;8.85;83.56;100784.19;6195184;23;20024;-71
2022/03/02 08:54:11;;;;;;;0.20;0.20;;;;;;;8.82;83.90;100784.69;6209730;23;20028;-71
2022/03/02 08:56:38;;;;;;;0.00;0.00;;;;;;;8.87;83.64;100787.47;6212393;23;20032;-72
2022/03/02 08:59:07;;;;;;;0.00;0.00;;;;;;;8.83;83.50;100780.84;6218422;23;20436;-71
2022/03/02 09:01:40;;;;;;;0.00;0.00;;;;;;;8.84;83.45;100777.06;6222004;23;20366;-72
2022/03/02 09:04:06;;;;;;;0.00;0.00;;;;;;;8.89;84.02;100779.91;6217902;23;20122;-72
2022/03/02 09:06:36;;;;;;;0.00;0.00;;;;;;;8.88;83.81;100778.22;6230527;23;20005;-71
2022/03/02 09:09:07;;;;;;;0.00;0.00;;;;;;;8.86;83.41;100769.47;6233733;23;19995;-72
2022/03/02 09:11:35;;;;;;;0.00;0.00;;;;;;;8.88;83.50;100772.78;6231235;23;20000;-72
2022/03/02 09:14:08;;;;;;;0.00;0.00;;;;;;;8.87;83.69;100765.66;6222304;23;20007;-71
2022/03/02 09:17:12;;;;;;;0.00;0.00;;;;;;;8.86;83.88;100764.03;6222208;23;20005;-72
2022/03/02 09:20:22;;;;;;;0.00;0.00;;;;;;;8.83;84.00;100761.75;6204068;23;20009;-73
2022/03/02 09:23:12;;;;;;;0.00;0.00;;;;;;;8.84;83.92;100749.78;6096941;23;20483;-72
2022/03/02 09:25:48;;;;;;;0.00;0.00;;;;;;;8.75;83.90;100754.00;6122943;23;20040;-73
2022/03/02 09:29:02;;;;;;;0.28;0.28;;;;;;;8.70;83.93;100760.19;6097186;23;20014;-70
2022/03/02 09:31:54;;;;;;;0.45;0.45;;;;;;;8.70;84.47;100775.72;6182628;23;20155;-70
2022/03/02 09:34:37;;;;;;;0.00;0.00;;;;;;;8.63;84.40;100761.41;6201627;23;20001;-70
2022/03/02 09:37:22;;;;;;;0.00;0.00;;;;;;;8.65;84.39;100767.47;6212440;23;20011;-73
2022/03/02 09:40:00;;;;;;;0.00;0.00;;;;;;;8.65;84.65;100762.00;6214046;23;20004;-72
2022/03/02 09:42:53;;;;;;;;;;;;;;;;;;;;;
2022/03/02 09:45:54;;;;;;;0.00;0.00;;;;;;;8.72;84.35;100773.59;6212824;23;20088;-71
2022/03/02 09:48:49;;;;;;;0.00;0.00;;;;;;;8.77;84.70;100776.38;6210859;23;20000;-71
2022/03/02 09:51:51;;;;;;;0.03;0.03;;;;;;;8.79;84.34;100774.25;6203954;23;20013;-71
2022/03/02 09:54:28;;;;;;;0.00;0.00;;;;;;;8.83;83.99;100769.94;6213308;23;20103;-73
2022/03/02 09:57:50;;;;;;;0.20;0.20;;;;;;;8.91;84.48;100777.72;6209279;23;20004;-71
2022/03/02 10:00:53;;;;;;;;;;;;;;;;;;;;;
2022/03/02 10:04:09;;;;;;;0.35;0.35;;;;;;;8.95;84.28;100778.09;6215604;23;20091;-70
2022/03/02 10:10:48;;;;;;;;;;;;;;;;;;;;;
2022/03/02 10:13:25;;;;;;;0.00;0.00;;;;;;;9.02;84.24;100773.31;6203905;23;20099;-70
2022/03/02 10:16:20;;;;;;;0.00;0.00;;;;;;;9.11;83.91;100776.41;6212606;23;20108;-70
2022/03/02 10:18:53;;;;;;;0.00;0.00;;;;;;;9.03;83.20;100763.22;6213151;23;20007;-70
2022/03/02 10:21:37;;;;;;;0.32;0.32;;;;;;;9.11;83.75;100783.78;6210314;23;20004;-69
2022/03/02 10:24:17;;;;;;;0.00;0.00;;;;;;;9.06;83.01;100784.53;6187698;23;20023;-72
2022/03/02 10:27:11;;;;;;;0.00;0.00;;;;;;;9.00;83.52;100791.78;6210091;23;20001;-72
2022/03/02 10:30:59;;;;;;;;;;;;;;;;;;;;;
2022/03/02 10:33:54;;;;;;;0.00;0.00;;;;;;;8.91;84.02;100783.19;6184384;23;20092;-71
2022/03/02 10:37:11;;;;;;;0.00;0.00;;;;;;;8.91;83.79;100783.19;6213323;23;20009;-70
2022/03/02 10:40:09;;;;;;;;;;;;;;;;;;;;;
2022/03/02 10:42:43;;;;;;;0.00;0.00;;;;;;;8.85;84.16;100775.19;6212095;23;20845;-70
2022/03/02 10:45:16;;;;;;;0.00;0.00;;;;;;;8.85;84.24;100767.81;6211937;23;20382;-73
2022/03/02 10:48:04;;;;;;;0.00;0.00;;;;;;;8.85;83.90;100773.28;6211267;23;20374;-71
2022/03/02 10:50:35;;;;;;;0.00;0.00;;;;;;;8.84;83.41;100771.63;6211937;23;20024;-71
2022/03/02 11:03:14;;;;;;;0.00;0.00;;;;;;;8.85;83.84;100767.81;6091860;23;20022;-72
2022/03/02 11:06:24;;;;;;;0.00;0.00;;;;;;;8.93;84.46;100763.03;6121861;23;20073;-73
2022/03/02 11:09:00;;;;;;;0.00;0.00;;;;;;;9.02;84.26;100758.81;6090686;23;20010;-72
2022/03/02 11:11:46;;;;;;;0.03;0.03;;;;;;;9.05;84.23;100747.41;6089773;23;20093;-69
2022/03/02 11:14:18;;;;;;;0.00;0.00;;;;;;;9.08;84.04;100755.09;6091301;23;20434;-70
2022/03/02 11:16:53;;;;;;;0.35;0.35;;;;;;;9.11;83.56;100759.22;6090586;23;20014;-69
2022/03/02 11:19:19;;;;;;;0.00;0.00;;;;;;;9.15;83.71;100761.22;6139959;23;20005;-69
2022/03/02 11:21:59;;;;;;;0.00;0.00;;;;;;;9.12;83.29;100758.16;6178332;23;20019;-68
2022/03/02 11:24:36;;;;;;;0.00;0.00;;;;;;;9.08;83.27;100755.09;6154424;23;20854;-70
2022/03/02 11:27:28;;;;;;;0.00;0.00;;;;;;;9.17;83.34;100767.25;6133770;23;20056;-72
2022/03/02 11:30:12;;;;;;;0.00;0.00;;;;;;;9.19;83.56;100767.00;6154880;23;20009;-71
2022/03/02 11:32:43;;;;;;;0.00;0.00;;;;;;;9.13;83.34;100755.19;6155529;23;20005;-69
2022/03/02 11:35:33;;;;;;;0.00;0.00;;;;;;;9.12;83.22;100756.25;6179081;23;20147;-70
2022/03/02 11:38:20;;;;;;;0.00;0.00;;;;;;;9.12;83.54;100756.25;6132757;23;20001;-70
2022/03/02 11:40:49;;;;;;;0.00;0.00;;;;;;;9.12;83.44;100756.25;6209391;23;20401;-69
2022/03/02 11:43:29;;;;;;;0.00;0.00;;;;;;;9.21;83.69;100754.78;6217298;23;20054;-70
2022/03/02 11:47:01;;;;;;;0.00;0.00;;;;;;;9.29;83.72;100755.41;6214215;23;20073;-68
2022/03/02 11:49:57;;;;;;;0.00;0.00;;;;;;;9.32;83.32;100760.41;6230035;23;20016;-69
2022/03/02 11:52:25;;;;;;;0.00;0.00;;;;;;;9.31;83.10;100756.00;6232263;23;20013;-69
2022/03/02 11:55:09;;;;;;;0.00;0.00;;;;;;;9.40;83.36;100747.16;6223913;23;20008;-68
2022/03/02 12:00:44;;;;;;;;;;;;;;;9.67;82.89;100745.63;6201732;23;20008;-70
2022/03/02 12:03:16;;;;;;;0.00;0.00;;;;;;;9.66;82.70;100744.78;6211852;23;19903;-71
2022/03/02 12:05:44;;;;;;;0.00;0.00;;;;;;;9.71;83.03;100746.75;6210745;23;20005;-69
2022/03/02 12:08:16;;;;;;;0.10;0.10;;;;;;;9.74;82.50;100749.00;6211538;23;20004;-71
2022/03/02 12:10:53;;;;;;;0.00;0.00;;;;;;;9.71;82.22;100742.13;6210679;23;20431;-70
2022/03/02 12:13:31;;;;;;;;;;;;;;;;;;;;;
2022/03/02 12:16:03;;;;;;;0.00;0.00;;;;;;;9.59;81.67;100734.03;6212968;23;20388;-70
2022/03/02 12:18:37;;;;;;;0.00;0.00;;;;;;;9.57;81.75;100730.72;6210553;23;20039;-71
2022/03/02 12:21:03;;;;;;;0.00;0.00;;;;;;;9.51;81.67;100715.34;6214574;23;20382;-69
2022/03/02 12:23:52;;;;;;;0.00;0.00;;;;;;;9.58;81.90;100721.47;6211341;23;20042;-69
2022/03/02 12:26:23;;;;;;;0.00;0.00;;;;;;;9.57;81.85;100714.34;6212922;23;20011;-71
2022/03/02 12:28:56;;;;;;;0.57;0.57;;;;;;;9.65;81.33;100704.06;6185787;23;20042;-70